Time;durP1;ratioP1;P1;durP2;ratioP2;P2;SDS_P1;SDS_P2;PMS_P1;PMS_P2;Temp;Humidity;BMP_temperature;BMP_pressure;BME280_temperature;BME280_humidity;BME280_pressure;Samples;Min_cycle;Max_cycle;Signal;HPM_P1;HPM_P2
2022/09/28 00:00:26;;;;;;;17.15;6.70;;;5.90;99.90;;;;;;5007468;28;20089;-72
2022/09/28 00:02:56;;;;;;;15.70;7.47;;;5.80;99.90;;;;;;5006720;28;20470;-73
2022/09/28 00:05:22;;;;;;;16.90;6.85;;;5.80;99.90;;;;;;5005734;28;20116;-72
2022/09/28 00:07:48;;;;;;;19.60;7.35;;;5.80;99.90;;;;;;5003228;28;20124;-72
2022/09/28 00:10:14;;;;;;;20.40;7.88;;;5.80;99.90;;;;;;5004776;28;20120;-72
2022/09/28 00:12:40;;;;;;;19.10;7.28;;;5.80;99.90;;;;;;5005318;28;20172;-72
2022/09/28 00:15:06;;;;;;;20.45;8.32;;;5.80;99.90;;;;;;5003031;28;20104;-72
2022/09/28 00:17:32;;;;;;;17.00;7.25;;;5.70;99.90;;;;;;5006329;28;20034;-72
2022/09/28 00:19:58;;;;;;;24.30;8.35;;;5.80;99.90;;;;;;4998032;28;20048;-72
2022/09/28 00:22:23;;;;;;;19.80;8.13;;;5.80;99.90;;;;;;5001641;28;20061;-72
2022/09/28 00:24:52;;;;;;;22.63;8.95;;;5.80;99.90;;;;;;5001130;28;20354;-72
2022/09/28 00:27:18;;;;;;;22.45;8.98;;;5.80;99.90;;;;;;4997202;28;20522;-72
2022/09/28 00:29:43;;;;;;;27.05;7.93;;;5.70;99.90;;;;;;5006963;28;20129;-73
2022/09/28 00:32:10;;;;;;;22.38;9.52;;;5.70;99.90;;;;;;4994280;28;20050;-73
2022/09/28 00:34:44;;;;;;;25.15;8.85;;;5.70;99.90;;;;;;5005742;28;20071;-72
2022/09/28 00:37:11;;;;;;;24.85;9.80;;;5.70;99.90;;;;;;4996007;28;20362;-72
2022/09/28 00:39:40;;;;;;;30.13;10.32;;;5.60;99.90;;;;;;4999399;28;20030;-72
2022/09/28 00:42:12;;;;;;;35.63;10.70;;;5.70;99.90;;;;;;5007015;28;20069;-74
2022/09/28 00:44:46;;;;;;;31.38;10.52;;;5.70;99.90;;;;;;5006850;28;20461;-72
2022/09/28 00:47:36;;;;;;;31.65;9.73;;;5.70;99.90;;;;;;5010430;28;20429;-73
2022/09/28 00:50:11;;;;;;;30.20;11.23;;;5.70;99.90;;;;;;5000947;28;20045;-73
2022/09/28 00:53:06;;;;;;;30.58;11.50;;;5.70;99.90;;;;;;5006666;28;20046;-72
2022/09/28 00:55:31;;;;;;;28.98;11.13;;;5.60;99.90;;;;;;4999377;28;20053;-72
2022/09/28 00:58:00;;;;;;;33.15;12.57;;;5.60;99.90;;;;;;5008016;28;20054;-72
2022/09/28 01:00:25;;;;;;;33.80;10.85;;;5.50;99.90;;;;;;5008986;28;20450;-72
2022/09/28 01:02:51;;;;;;;29.02;11.57;;;5.50;99.90;;;;;;5013034;28;20172;-73
2022/09/28 01:05:17;;;;;;;39.97;12.18;;;5.50;99.90;;;;;;5008172;28;20342;-72
2022/09/28 01:07:44;;;;;;;37.58;11.73;;;5.60;99.90;;;;;;5002544;28;20401;-72
2022/09/28 01:10:10;;;;;;;32.13;12.10;;;5.60;99.90;;;;;;5005032;28;20022;-72
2022/09/28 01:12:35;;;;;;;34.95;12.50;;;5.50;99.90;;;;;;5008444;28;20060;-71
2022/09/28 01:15:02;;;;;;;42.35;13.10;;;5.50;99.90;;;;;;5011841;28;20145;-72
2022/09/28 01:17:55;;;;;;;34.05;12.05;;;5.60;99.90;;;;;;5005442;28;20053;-72
2022/09/28 01:20:33;;;;;;;33.03;12.43;;;5.60;99.90;;;;;;5006091;28;20045;-72
2022/09/28 01:23:37;;;;;;;37.47;12.82;;;5.50;99.90;;;;;;5006175;28;20125;-72
2022/09/28 01:26:33;;;;;;;41.58;13.35;;;5.40;99.90;;;;;;4992957;28;20046;-72
2022/09/28 01:29:14;;;;;;;44.45;12.00;;;5.40;99.90;;;;;;5009709;28;20038;-72
2022/09/28 01:31:47;;;;;;;43.88;12.50;;;5.40;99.90;;;;;;5009287;28;20034;-73
2022/09/28 01:34:19;;;;;;;41.38;12.75;;;5.30;99.90;;;;;;5005262;28;20109;-72
2022/09/28 01:36:49;;;;;;;39.80;13.40;;;5.30;99.90;;;;;;5007081;28;20501;-72
2022/09/28 01:39:20;;;;;;;37.22;13.43;;;5.30;99.90;;;;;;5005801;28;20107;-73
2022/09/28 01:41:50;;;;;;;;;;;5.20;99.90;;;;;;5005222;28;20044;-72
2022/09/28 01:44:18;;;;;;;35.35;12.05;;;5.30;99.90;;;;;;5024017;28;20311;-72
2022/09/28 01:46:49;;;;;;;42.78;13.02;;;5.40;99.90;;;;;;5002616;28;20038;-73
2022/09/28 01:49:30;;;;;;;40.00;12.98;;;5.40;99.90;;;;;;5008571;28;20030;-72
2022/09/28 01:52:03;;;;;;;40.53;14.48;;;5.60;99.90;;;;;;5009190;28;20375;-73
2022/09/28 01:54:40;;;;;;;45.63;14.93;;;5.60;99.90;;;;;;5005150;28;20053;-72
2022/09/28 01:57:09;;;;;;;51.10;14.07;;;5.50;99.90;;;;;;4999032;28;20385;-75
2022/09/28 01:59:37;;;;;;;45.85;14.38;;;5.60;99.90;;;;;;5009056;28;20293;-72
2022/09/28 02:02:10;;;;;;;49.05;15.00;;;5.60;99.90;;;;;;5005737;28;20057;-72
2022/09/28 02:04:39;;;;;;;46.40;14.27;;;5.50;99.90;;;;;;5012271;28;20425;-72
2022/09/28 02:07:15;;;;;;;46.45;14.20;;;5.40;99.90;;;;;;5007097;28;20240;-73
2022/09/28 02:09:59;;;;;;;48.05;15.00;;;5.40;99.90;;;;;;5005081;28;20056;-72
2022/09/28 02:12:39;;;;;;;48.05;14.07;;;5.40;99.90;;;;;;5001888;28;20073;-72
2022/09/28 02:15:29;;;;;;;43.70;13.18;;;5.30;99.90;;;;;;5006146;28;20038;-72
2022/09/28 02:17:55;;;;;;;45.70;13.02;;;5.30;99.90;;;;;;5007623;28;20030;-72
2022/09/28 02:20:22;;;;;;;46.70;13.68;;;5.30;99.90;;;;;;5020803;28;20132;-72
2022/09/28 02:22:54;;;;;;;46.63;13.35;;;5.30;99.90;;;;;;5007791;28;20034;-72
2022/09/28 02:25:35;;;;;;;49.15;14.05;;;5.30;99.90;;;;;;5006890;28;20100;-72
2022/09/28 02:28:05;;;;;;;51.15;12.63;;;5.30;99.90;;;;;;5005257;28;20038;-72
2022/09/28 02:30:34;;;;;;;57.20;14.30;;;5.30;99.90;;;;;;5005222;28;20366;-73
2022/09/28 02:33:15;;;;;;;48.38;13.38;;;5.20;99.90;;;;;;5007152;28;20030;-73
2022/09/28 02:35:41;;;;;;;47.15;14.27;;;5.20;99.90;;;;;;5011166;28;20387;-73
2022/09/28 02:38:09;;;;;;;60.65;14.43;;;5.20;99.90;;;;;;5004630;28;20030;-72
2022/09/28 02:40:36;;;;;;;62.50;14.55;;;5.20;99.90;;;;;;4999772;28;20034;-72
2022/09/28 02:43:32;;;;;;;65.60;14.40;;;5.30;99.90;;;;;;5001564;28;20118;-72
2022/09/28 02:46:28;;;;;;;75.85;15.25;;;5.30;99.90;;;;;;5006527;28;20066;-72
2022/09/28 02:49:12;;;;;;;80.43;14.73;;;5.30;99.90;;;;;;5002116;28;20037;-72
2022/09/28 02:51:42;;;;;;;118.95;15.23;;;5.40;99.90;;;;;;5005393;28;20120;-72
2022/09/28 02:54:29;;;;;;;111.03;14.63;;;5.40;99.90;;;;;;5007578;28;20065;-73
2022/09/28 02:57:20;;;;;;;106.30;14.75;;;5.40;99.90;;;;;;5007367;28;20042;-72
2022/09/28 02:59:56;;;;;;;144.10;15.93;;;5.40;99.90;;;;;;5002348;28;20033;-73
2022/09/28 03:02:31;;;;;;;129.98;15.55;;;5.40;99.90;;;;;;5002106;28;20076;-73
2022/09/28 03:05:19;;;;;;;72.50;15.82;;;5.40;99.90;;;;;;4990847;28;20165;-73
2022/09/28 03:07:57;;;;;;;109.88;14.48;;;5.40;99.90;;;;;;5002178;28;20053;-73
2022/09/28 03:10:39;;;;;;;77.13;15.05;;;5.40;99.90;;;;;;5006882;28;20030;-72
2022/09/28 03:13:05;;;;;;;98.47;13.05;;;5.40;99.90;;;;;;5002556;28;20022;-73
2022/09/28 03:15:35;;;;;;;133.07;14.80;;;5.40;99.90;;;;;;5007154;28;20461;-73
2022/09/28 03:18:01;;;;;;;146.10;14.45;;;5.30;99.90;;;;;;5007849;28;20113;-72
2022/09/28 03:20:27;;;;;;;103.57;13.30;;;5.30;99.90;;;;;;5000954;28;20113;-73
2022/09/28 03:22:53;;;;;;;137.52;14.68;;;5.30;99.90;;;;;;4995770;28;20032;-73
2022/09/28 03:25:19;;;;;;;92.53;13.93;;;5.30;99.90;;;;;;5003688;28;20037;-73
2022/09/28 03:27:44;;;;;;;125.60;14.02;;;5.30;99.90;;;;;;5008974;28;20398;-73
2022/09/28 03:30:11;;;;;;;132.93;13.20;;;5.30;99.90;;;;;;5006777;28;20105;-73
2022/09/28 03:32:37;;;;;;;109.78;14.30;;;5.30;99.90;;;;;;5005443;28;20467;-73
2022/09/28 03:35:03;;;;;;;91.60;13.10;;;5.30;99.90;;;;;;5006168;28;20068;-72
2022/09/28 03:37:29;;;;;;;74.10;12.23;;;5.30;99.90;;;;;;5002178;28;20050;-72
2022/09/28 03:39:54;;;;;;;123.90;13.23;;;5.30;99.90;;;;;;4999679;28;20036;-73
2022/09/28 03:42:20;;;;;;;94.57;13.38;;;5.20;99.90;;;;;;5004946;28;20145;-73
2022/09/28 03:44:45;;;;;;;137.20;14.90;;;5.20;99.90;;;;;;5005452;28;20080;-72
2022/09/28 03:47:11;;;;;;;146.63;15.02;;;5.20;99.90;;;;;;5003372;28;20038;-73
2022/09/28 03:49:37;;;;;;;133.32;14.52;;;5.20;99.90;;;;;;5005176;28;20425;-73
2022/09/28 03:52:03;;;;;;;147.15;14.70;;;5.10;99.90;;;;;;5006669;28;20092;-73
2022/09/28 03:54:28;;;;;;;140.98;15.57;;;5.10;99.90;;;;;;4995116;28;20046;-73
2022/09/28 03:56:54;;;;;;;102.20;12.23;;;5.10;99.90;;;;;;5006830;28;20068;-72
2022/09/28 03:59:20;;;;;;;98.35;12.63;;;5.20;99.90;;;;;;5005263;28;20053;-73
2022/09/28 04:01:48;;;;;;;66.97;11.40;;;5.20;99.90;;;;;;5001399;28;20034;-72
2022/09/28 04:04:14;;;;;;;109.88;12.73;;;5.20;99.90;;;;;;5006014;28;20048;-73
2022/09/28 04:06:39;;;;;;;96.88;13.23;;;5.10;99.90;;;;;;5010969;28;20030;-72
2022/09/28 04:09:05;;;;;;;118.72;12.68;;;5.10;99.90;;;;;;5013969;28;20074;-73
2022/09/28 04:11:31;;;;;;;137.18;13.32;;;5.10;99.90;;;;;;4990621;28;20042;-74
2022/09/28 04:13:56;;;;;;;107.30;12.27;;;5.00;99.90;;;;;;5000849;28;20043;-73
2022/09/28 04:16:22;;;;;;;93.50;12.38;;;4.90;99.90;;;;;;5003935;28;20192;-73
2022/09/28 04:18:47;;;;;;;81.40;11.50;;;4.90;99.90;;;;;;5009069;28;20030;-73
2022/09/28 04:21:15;;;;;;;76.50;12.00;;;4.80;99.90;;;;;;5005307;28;20038;-73
2022/09/28 04:23:41;;;;;;;80.50;12.40;;;4.80;99.90;;;;;;4996021;28;20027;-73
2022/09/28 04:26:15;;;;;;;82.68;11.73;;;4.80;99.90;;;;;;4989835;28;20045;-74
2022/09/28 04:31:26;;;;;;;43.92;10.27;;;4.70;99.90;;;;;;5005218;28;20037;-70
2022/09/28 04:33:52;;;;;;;74.85;11.05;;;4.70;99.90;;;;;;5003918;28;20084;-72
2022/09/28 04:36:18;;;;;;;71.45;10.77;;;4.60;99.90;;;;;;5011241;28;20453;-72
2022/09/28 04:38:44;;;;;;;87.35;11.88;;;4.60;99.90;;;;;;5005999;28;20066;-72
2022/09/28 04:41:10;;;;;;;48.10;10.75;;;4.60;99.90;;;;;;5008750;28;20164;-72
2022/09/28 04:43:36;;;;;;;68.32;11.20;;;4.60;99.90;;;;;;5012473;28;20513;-72
2022/09/28 04:46:04;;;;;;;84.40;12.77;;;4.60;99.90;;;;;;5004903;28;20184;-77
2022/09/28 04:48:30;;;;;;;103.88;11.85;;;4.60;99.90;;;;;;5001662;28;20483;-71
2022/09/28 04:50:57;;;;;;;64.25;11.05;;;4.50;99.90;;;;;;5010130;28;20113;-74
2022/09/28 04:53:23;;;;;;;78.43;11.57;;;4.50;99.90;;;;;;5004770;28;20042;-72
2022/09/28 04:56:02;;;;;;;77.00;11.45;;;4.50;99.90;;;;;;4997090;28;20575;-72
2022/09/28 04:58:28;;;;;;;72.82;12.02;;;4.50;99.90;;;;;;4991417;28;20030;-71
2022/09/28 05:00:58;;;;;;;88.18;12.80;;;4.50;99.90;;;;;;4998669;28;20342;-75
2022/09/28 05:03:23;;;;;;;73.63;11.35;;;4.50;99.90;;;;;;5002204;28;20029;-72
2022/09/28 05:05:49;;;;;;;173.13;16.90;;;4.50;99.90;;;;;;5004981;28;20045;-71
2022/09/28 05:08:15;;;;;;;43.13;11.70;;;4.50;99.90;;;;;;5008730;28;20033;-73
2022/09/28 05:10:41;;;;;;;83.15;11.43;;;4.40;99.90;;;;;;5007112;28;20077;-74
2022/09/28 05:13:11;;;;;;;117.50;13.30;;;4.40;99.90;;;;;;5018821;28;20045;-70
2022/09/28 05:15:38;;;;;;;70.13;11.87;;;4.40;99.90;;;;;;5012410;28;20128;-70
2022/09/28 05:18:04;;;;;;;150.75;14.13;;;4.50;99.90;;;;;;5004033;28;20331;-72
2022/09/28 05:20:30;;;;;;;108.68;12.43;;;4.40;99.90;;;;;;5004446;28;20064;-78
2022/09/28 05:22:55;;;;;;;148.90;15.02;;;4.50;99.90;;;;;;5005089;28;20042;-70
2022/09/28 05:25:21;;;;;;;82.90;11.48;;;4.60;99.90;;;;;;5010483;28;20037;-70
2022/09/28 05:27:47;;;;;;;80.57;14.07;;;4.60;99.90;;;;;;5005233;28;20073;-71
2022/09/28 05:30:13;;;;;;;129.18;14.63;;;4.60;99.90;;;;;;5023151;28;20186;-73
2022/09/28 05:32:45;;;;;;;111.07;14.65;;;4.60;99.90;;;;;;5008872;28;20386;-71
2022/09/28 05:35:11;;;;;;;61.58;11.93;;;4.60;99.90;;;;;;5009366;28;20108;-71
2022/09/28 05:37:37;;;;;;;82.95;13.40;;;4.70;99.90;;;;;;5000907;28;20050;-72
2022/09/28 05:40:04;;;;;;;100.75;12.50;;;4.60;99.90;;;;;;5005859;28;20116;-70
2022/09/28 05:42:30;;;;;;;70.35;12.43;;;4.60;99.90;;;;;;5008794;28;20037;-70
2022/09/28 05:44:57;;;;;;;66.38;11.05;;;4.60;99.90;;;;;;5009864;28;20340;-70
2022/09/28 05:47:24;;;;;;;112.82;14.10;;;4.60;99.90;;;;;;5005960;28;20379;-70
2022/09/28 05:49:49;;;;;;;91.57;14.35;;;4.60;99.90;;;;;;5007493;28;20029;-70
2022/09/28 05:52:15;;;;;;;71.45;12.18;;;4.60;99.90;;;;;;5005828;28;20038;-70
2022/09/28 05:54:40;;;;;;;105.55;13.50;;;4.70;99.90;;;;;;5006300;28;20117;-69
2022/09/28 05:57:06;;;;;;;123.05;13.80;;;4.80;99.90;;;;;;5016917;28;20488;-75
2022/09/28 05:59:33;;;;;;;89.53;12.40;;;4.90;99.90;;;;;;5017372;28;20034;-71
2022/09/28 06:01:59;;;;;;;124.80;14.45;;;5.00;99.90;;;;;;4996947;28;20045;-70
2022/09/28 06:04:25;;;;;;;103.43;13.73;;;5.00;99.90;;;;;;5009862;28;20105;-70
2022/09/28 06:06:50;;;;;;;91.25;11.68;;;5.00;99.90;;;;;;5010359;28;20137;-70
2022/09/28 06:09:15;;;;;;;146.63;13.18;;;5.00;99.90;;;;;;5004857;28;20030;-70
2022/09/28 06:11:41;;;;;;;78.18;11.73;;;5.00;99.90;;;;;;5006647;28;20087;-70
2022/09/28 06:14:06;;;;;;;108.90;13.25;;;5.10;99.90;;;;;;5017084;28;20063;-69
2022/09/28 06:16:33;;;;;;;95.00;13.30;;;5.10;99.90;;;;;;5017095;28;20079;-69
2022/09/28 06:18:59;;;;;;;55.92;11.60;;;5.10;99.90;;;;;;5007873;28;20365;-70
2022/09/28 06:21:25;;;;;;;70.97;12.02;;;5.20;99.90;;;;;;5016872;28;20113;-69
2022/09/28 06:23:50;;;;;;;107.05;14.40;;;5.10;99.90;;;;;;5008695;28;20128;-73
2022/09/28 06:26:16;;;;;;;81.00;12.95;;;5.30;99.90;;;;;;5006757;28;20022;-69
2022/09/28 06:28:41;;;;;;;64.07;12.32;;;5.20;99.90;;;;;;5004732;28;20034;-70
2022/09/28 06:31:07;;;;;;;84.80;11.90;;;5.10;99.90;;;;;;5008898;28;20029;-69
2022/09/28 06:33:34;;;;;;;94.10;12.07;;;5.10;99.90;;;;;;5008307;28;20070;-71
2022/09/28 06:36:00;;;;;;;87.93;11.57;;;5.20;99.90;;;;;;5018552;28;20033;-69
2022/09/28 06:38:25;;;;;;;92.90;11.68;;;5.20;99.90;;;;;;5010840;28;20041;-69
2022/09/28 06:40:51;;;;;;;105.22;12.90;;;5.30;99.90;;;;;;5006921;28;20366;-69
2022/09/28 06:43:16;;;;;;;82.38;11.60;;;5.30;99.90;;;;;;5008606;28;20374;-65
2022/09/28 06:45:42;;;;;;;92.25;12.77;;;5.40;99.90;;;;;;5009556;28;20037;-65
2022/09/28 06:48:09;;;;;;;54.90;12.27;;;5.60;99.90;;;;;;5009265;28;20026;-65
2022/09/28 06:50:41;;;;;;;99.65;12.57;;;5.60;99.90;;;;;;5008985;28;20101;-67
2022/09/28 06:53:09;;;;;;;110.88;14.82;;;5.70;99.90;;;;;;5021431;28;20140;-65
2022/09/28 06:55:38;;;;;;;133.88;16.08;;;5.90;99.90;;;;;;5007634;28;20026;-66
2022/09/28 06:58:06;;;;;;;114.78;15.43;;;6.00;99.90;;;;;;5009053;28;20136;-66
2022/09/28 07:00:34;;;;;;;146.32;16.45;;;6.20;99.90;;;;;;5002366;28;20034;-67
2022/09/28 07:03:05;;;;;;;97.10;16.80;;;6.30;99.90;;;;;;5013584;28;20026;-66
2022/09/28 07:05:33;;;;;;;117.85;15.82;;;6.40;99.90;;;;;;5014745;28;20030;-67
2022/09/28 07:08:00;;;;;;;150.85;18.50;;;6.40;99.90;;;;;;5009320;28;20057;-66
2022/09/28 07:10:27;;;;;;;109.95;16.92;;;6.40;99.90;;;;;;5007936;28;20045;-68
2022/09/28 07:12:54;;;;;;;84.80;15.73;;;6.30;99.90;;;;;;5005884;28;20310;-66
2022/09/28 07:15:20;;;;;;;124.60;15.63;;;6.20;99.90;;;;;;5007235;28;20608;-66
2022/09/28 07:17:46;;;;;;;110.13;13.63;;;6.20;99.90;;;;;;5002326;28;20483;-66
2022/09/28 07:20:12;;;;;;;137.60;14.63;;;6.20;99.90;;;;;;5004634;28;20049;-67
2022/09/28 07:22:38;;;;;;;147.77;14.90;;;6.30;99.90;;;;;;5009053;28;20060;-65
2022/09/28 07:25:07;;;;;;;114.05;13.30;;;6.30;99.90;;;;;;5007093;28;20028;-67
2022/09/28 07:27:35;;;;;;;99.15;12.00;;;6.30;99.90;;;;;;5006002;28;20155;-67
2022/09/28 07:30:02;;;;;;;91.60;11.90;;;6.40;99.90;;;;;;5008654;28;20036;-66
2022/09/28 07:32:27;;;;;;;76.93;12.02;;;6.40;99.90;;;;;;5008632;28;20422;-67
2022/09/28 07:34:53;;;;;;;70.20;9.93;;;6.30;99.90;;;;;;5001250;28;20042;-66
2022/09/28 07:37:18;;;;;;;63.38;12.65;;;6.10;99.80;;;;;;4998410;28;20103;-67
2022/09/28 07:42:29;;;;;;;63.33;9.95;;;6.40;99.90;;;;;;5006652;28;20116;-66
2022/09/28 07:44:57;;;;;;;74.82;11.13;;;6.40;99.90;;;;;;5022026;28;20037;-67
2022/09/28 07:47:25;;;;;;;90.88;11.40;;;6.40;99.90;;;;;;5015352;28;20107;-66
2022/09/28 07:49:55;;;;;;;60.50;10.77;;;6.50;99.90;;;;;;5013875;28;20041;-66
2022/09/28 07:52:24;;;;;;;51.25;10.65;;;6.60;99.90;;;;;;5002643;28;20133;-66
2022/09/28 07:54:52;;;;;;;62.03;11.05;;;6.70;99.90;;;;;;5005046;28;20338;-66
2022/09/28 07:57:18;;;;;;;57.22;9.82;;;6.80;99.90;;;;;;5007506;28;20085;-66
2022/09/28 07:59:44;;;;;;;60.88;10.15;;;6.50;99.70;;;;;;5008539;28;20223;-66
2022/09/28 08:02:11;;;;;;;68.93;11.88;;;6.60;99.90;;;;;;5006718;28;20224;-67
2022/09/28 08:04:36;;;;;;;66.38;11.88;;;6.80;99.90;;;;;;5008140;28;20037;-65
2022/09/28 08:07:02;;;;;;;53.65;10.80;;;6.80;99.90;;;;;;5019247;28;20116;-66
2022/09/28 08:09:28;;;;;;;42.28;11.13;;;7.00;99.90;;;;;;5002592;28;20058;-66
2022/09/28 08:11:54;;;;;;;42.78;10.85;;;7.10;99.90;;;;;;4998625;28;20026;-66
2022/09/28 08:14:20;;;;;;;88.18;11.85;;;7.10;99.80;;;;;;5008029;28;20033;-66
2022/09/28 08:16:45;;;;;;;63.72;12.30;;;7.00;99.50;;;;;;5007079;28;20053;-66
2022/09/28 08:19:11;;;;;;;43.92;11.10;;;7.10;99.70;;;;;;5017401;28;20057;-66
2022/09/28 08:21:45;;;;;;;65.95;12.98;;;7.40;99.90;;;;;;5009249;28;20456;-66
2022/09/28 08:24:12;;;;;;;49.35;11.95;;;7.40;99.40;;;;;;5007231;28;20402;-66
2022/09/28 08:26:38;;;;;;;54.00;12.52;;;7.50;99.70;;;;;;4995498;28;20030;-67
2022/09/28 08:29:03;;;;;;;39.55;11.15;;;7.50;99.10;;;;;;5000208;28;20426;-66
2022/09/28 08:31:29;;;;;;;48.88;12.40;;;7.60;99.40;;;;;;5008197;28;20034;-66
2022/09/28 08:33:56;;;;;;;63.88;11.27;;;7.70;99.40;;;;;;5006931;28;20172;-66
2022/09/28 08:36:22;;;;;;;33.03;11.63;;;7.70;99.30;;;;;;5005406;28;20449;-67
2022/09/28 08:38:48;;;;;;;40.92;12.43;;;7.90;99.50;;;;;;5006554;28;20098;-69
2022/09/28 08:41:39;;;;;;;36.70;11.38;;;7.90;99.10;;;;;;5007787;28;20335;-66
2022/09/28 08:44:08;;;;;;;25.17;11.38;;;8.00;99.10;;;;;;5000331;28;20026;-69
2022/09/28 08:46:39;;;;;;;24.65;11.25;;;8.10;99.00;;;;;;5008071;28;20052;-66
2022/09/28 08:49:15;;;;;;;19.85;12.05;;;8.10;98.90;;;;;;5007383;28;20342;-66
2022/09/28 08:52:12;;;;;;;28.55;11.32;;;8.10;98.90;;;;;;5015388;28;20030;-66
2022/09/28 08:54:47;;;;;;;18.67;11.70;;;8.10;98.90;;;;;;5005583;28;20048;-66
2022/09/28 08:57:20;;;;;;;34.50;10.63;;;8.10;98.80;;;;;;5007419;28;20061;-66
2022/09/28 08:59:52;;;;;;;21.92;11.35;;;8.10;98.80;;;;;;5007077;28;20058;-66
2022/09/28 09:02:35;;;;;;;18.73;11.88;;;8.20;98.70;;;;;;4999518;28;20141;-66
2022/09/28 09:05:04;;;;;;;18.08;11.18;;;8.30;98.70;;;;;;4999014;28;20062;-66
2022/09/28 09:07:52;;;;;;;22.13;11.75;;;8.40;98.70;;;;;;5002295;28;20148;-66
2022/09/28 09:10:50;;;;;;;19.83;12.02;;;8.30;98.40;;;;;;5005709;28;20260;-66
2022/09/28 09:13:44;;;;;;;19.10;12.05;;;8.40;98.40;;;;;;5007258;28;20447;-66
2022/09/28 09:16:24;;;;;;;23.08;12.40;;;8.50;98.60;;;;;;5006940;28;20109;-66
2022/09/28 09:19:14;;;;;;;21.83;11.87;;;8.70;98.40;;;;;;5006141;28;20078;-66
2022/09/28 09:21:45;;;;;;;21.55;12.07;;;8.70;98.30;;;;;;5016475;28;20088;-66
2022/09/28 09:24:23;;;;;;;20.30;13.18;;;8.80;98.40;;;;;;5009734;28;20080;-67
2022/09/28 09:26:54;;;;;;;21.88;12.40;;;8.90;97.90;;;;;;5010854;28;20034;-66
2022/09/28 09:29:36;;;;;;;17.85;11.95;;;9.00;97.70;;;;;;5010641;28;20037;-66
2022/09/28 09:32:07;;;;;;;;;;;9.00;97.70;;;;;;5011569;28;20038;-67
2022/09/28 09:35:04;;;;;;;19.02;10.93;;;9.20;97.40;;;;;;5007189;28;19913;-67
2022/09/28 09:37:46;;;;;;;21.48;12.77;;;9.40;97.70;;;;;;4982619;28;20046;-67
2022/09/28 09:40:33;;;;;;;19.30;11.65;;;9.60;97.10;;;;;;5009320;28;20029;-67
2022/09/28 09:43:16;;;;;;;20.67;12.18;;;9.50;96.80;;;;;;5010502;28;20026;-66
2022/09/28 09:45:41;;;;;;;16.35;11.18;;;9.50;96.50;;;;;;5010669;28;20047;-69
2022/09/28 09:48:16;;;;;;;20.98;12.57;;;9.50;96.30;;;;;;5007602;28;20030;-66
2022/09/28 09:50:49;;;;;;;17.10;12.27;;;9.50;95.90;;;;;;5004672;28;20069;-68
2022/09/28 09:53:32;;;;;;;19.33;12.30;;;9.60;96.10;;;;;;5003849;28;20045;-67
2022/09/28 09:56:06;;;;;;;19.42;12.23;;;9.70;96.20;;;;;;5003692;28;20531;-67
2022/09/28 09:58:40;;;;;;;18.83;12.45;;;9.30;95.00;;;;;;5010327;28;20033;-67
2022/09/28 10:01:10;;;;;;;18.90;12.10;;;9.50;96.10;;;;;;5010819;28;20061;-66
2022/09/28 10:03:41;;;;;;;16.50;11.13;;;9.30;95.60;;;;;;5009357;28;20073;-67
2022/09/28 10:06:31;;;;;;;17.92;11.50;;;9.30;95.50;;;;;;5009244;28;20137;-66
2022/09/28 10:09:28;;;;;;;18.83;12.55;;;9.10;95.30;;;;;;5002911;28;20026;-66
2022/09/28 10:11:54;;;;;;;16.30;11.70;;;9.20;95.40;;;;;;5005806;28;20081;-66
2022/09/28 10:14:22;;;;;;;20.25;12.77;;;9.20;95.40;;;;;;5010077;28;20434;-66
2022/09/28 10:16:50;;;;;;;18.73;12.50;;;9.40;95.90;;;;;;5010365;28;20446;-67
2022/09/28 10:19:19;;;;;;;22.35;13.20;;;9.30;95.00;;;;;;5009296;28;20029;-67
2022/09/28 10:21:49;;;;;;;18.58;13.07;;;9.30;95.30;;;;;;5010424;28;20060;-66
2022/09/28 10:24:28;;;;;;;19.45;13.52;;;9.40;94.90;;;;;;5002155;28;20049;-67
2022/09/28 10:26:55;;;;;;;22.27;13.05;;;9.40;94.90;;;;;;5008333;28;20034;-68
2022/09/28 10:29:24;;;;;;;19.13;13.73;;;9.60;95.10;;;;;;5009233;28;20037;-66
2022/09/28 10:31:52;;;;;;;22.52;14.75;;;10.00;95.50;;;;;;5006500;28;20049;-66
2022/09/28 10:34:25;;;;;;;18.27;13.40;;;10.10;94.30;;;;;;5009285;28;20022;-67
2022/09/28 10:37:00;;;;;;;21.88;13.10;;;10.10;93.80;;;;;;5009679;28;20033;-66
2022/09/28 10:39:33;;;;;;;23.70;13.77;;;10.20;93.90;;;;;;5005159;28;20084;-66
2022/09/28 10:42:04;;;;;;;21.25;13.13;;;10.00;93.40;;;;;;5002407;28;20056;-67
2022/09/28 10:44:32;;;;;;;19.70;13.10;;;10.00;93.70;;;;;;5008943;28;20065;-66
2022/09/28 10:47:06;;;;;;;20.90;13.95;;;9.80;93.70;;;;;;5010123;28;20128;-66
2022/09/28 10:49:42;;;;;;;20.27;13.75;;;9.70;93.90;;;;;;5009389;28;20133;-67
2022/09/28 10:52:27;;;;;;;21.00;13.25;;;9.70;94.00;;;;;;5007959;28;20092;-66
2022/09/28 10:54:52;;;;;;;19.67;13.75;;;9.60;94.10;;;;;;5006724;28;20041;-67
2022/09/28 10:57:32;;;;;;;21.58;13.88;;;9.60;94.40;;;;;;5007020;28;20065;-67
2022/09/28 10:59:58;;;;;;;18.23;12.88;;;9.60;94.40;;;;;;4999060;28;20048;-67
2022/09/28 11:02:27;;;;;;;19.63;13.55;;;9.50;94.10;;;;;;5001939;28;20432;-67
2022/09/28 11:05:00;;;;;;;21.63;15.15;;;9.30;94.00;;;;;;5005050;28;20176;-66
2022/09/28 11:07:29;;;;;;;19.33;13.55;;;9.20;94.20;;;;;;5007552;28;20068;-66
2022/09/28 11:09:55;;;;;;;22.17;13.82;;;9.20;94.50;;;;;;5008016;28;20360;-67
2022/09/28 11:12:24;;;;;;;20.60;13.68;;;9.20;94.70;;;;;;5008811;28;20144;-66
2022/09/28 11:15:00;;;;;;;19.63;13.13;;;9.30;94.80;;;;;;5009307;28;20438;-66
2022/09/28 11:17:37;;;;;;;20.02;13.50;;;9.30;94.80;;;;;;5000786;28;20410;-66
2022/09/28 11:20:24;;;;;;;20.48;13.68;;;9.20;94.70;;;;;;5008942;28;20052;-67
2022/09/28 11:22:56;;;;;;;18.85;12.30;;;9.30;94.40;;;;;;5008886;28;20022;-66
2022/09/28 11:25:25;;;;;;;21.75;12.40;;;9.40;94.50;;;;;;5008044;28;20034;-67
2022/09/28 11:27:50;;;;;;;16.92;11.82;;;9.60;94.40;;;;;;5008354;28;20367;-67
2022/09/28 11:30:25;;;;;;;17.55;12.15;;;9.70;93.50;;;;;;5007154;28;20033;-67
2022/09/28 11:33:11;;;;;;;19.50;11.65;;;9.70;92.20;;;;;;5008066;28;20034;-67
2022/09/28 11:35:44;;;;;;;15.40;10.75;;;9.90;92.20;;;;;;5005886;28;20034;-67
2022/09/28 11:38:28;;;;;;;16.23;11.45;;;10.00;90.80;;;;;;5005276;28;20022;-67
2022/09/28 11:41:12;;;;;;;19.15;11.30;;;10.00;91.80;;;;;;5006823;28;20108;-66
2022/09/28 11:43:54;;;;;;;18.27;11.43;;;10.00;91.00;;;;;;5007608;28;20430;-66
2022/09/28 11:46:32;;;;;;;16.70;10.38;;;10.10;91.40;;;;;;5009020;28;20052;-66
2022/09/28 11:49:12;;;;;;;18.38;10.88;;;9.90;92.10;;;;;;5008189;28;20026;-66
2022/09/28 11:51:39;;;;;;;21.42;12.10;;;10.00;92.60;;;;;;5000018;28;20038;-66
2022/09/28 11:54:30;;;;;;;16.35;11.27;;;9.90;91.90;;;;;;5012789;28;20344;-66
2022/09/28 11:56:58;;;;;;;19.95;11.32;;;9.80;92.30;;;;;;5007341;28;20069;-66
2022/09/28 11:59:31;;;;;;;17.88;12.32;;;9.70;92.60;;;;;;5004200;28;20060;-69
2022/09/28 12:02:08;;;;;;;18.95;12.45;;;9.60;93.00;;;;;;4997735;28;20038;-67
2022/09/28 12:04:42;;;;;;;20.13;12.95;;;9.60;93.30;;;;;;5000445;28;20041;-66
2022/09/28 12:07:31;;;;;;;19.70;13.43;;;9.60;92.60;;;;;;4998325;28;20144;-67
2022/09/28 12:10:34;;;;;;;23.38;11.25;;;9.70;93.20;;;;;;4996469;28;20395;-67
2022/09/28 12:13:09;;;;;;;16.38;11.15;;;9.90;92.50;;;;;;4998188;28;20071;-67
2022/09/28 12:15:53;;;;;;;15.23;10.88;;;10.10;91.80;;;;;;5000653;28;20463;-67
2022/09/28 12:18:24;;;;;;;17.45;11.25;;;10.20;91.10;;;;;;5001781;28;20609;-67
2022/09/28 12:21:06;;;;;;;14.98;11.13;;;10.50;91.50;;;;;;4996536;28;20445;-66
2022/09/28 12:23:39;;;;;;;18.05;12.13;;;10.60;90.70;;;;;;5001191;28;20074;-67
2022/09/28 12:26:25;;;;;;;17.27;11.98;;;10.90;90.60;;;;;;4997081;28;20033;-67
2022/09/28 12:28:59;;;;;;;15.70;10.73;;;11.30;88.80;;;;;;5001357;28;20084;-67
2022/09/28 12:31:38;;;;;;;14.18;10.00;;;11.80;86.80;;;;;;5000810;28;20077;-67
2022/09/28 12:34:04;;;;;;;13.93;9.40;;;11.90;85.70;;;;;;5001429;28;20038;-66
2022/09/28 12:36:52;;;;;;;15.40;10.60;;;12.30;84.30;;;;;;4999839;28;20386;-67
2022/09/28 12:39:42;;;;;;;14.80;9.73;;;13.00;86.10;;;;;;4997862;28;20109;-67
2022/09/28 12:42:26;;;;;;;15.18;9.30;;;13.20;83.00;;;;;;4996352;28;20419;-67
2022/09/28 12:45:01;;;;;;;18.33;8.82;;;13.30;79.70;;;;;;5005776;28;20417;-68
2022/09/28 12:48:02;;;;;;;12.60;9.00;;;13.50;79.60;;;;;;4999716;28;20162;-67
2022/09/28 12:50:44;;;;;;;8.82;7.05;;;13.30;80.00;;;;;;5005276;28;20053;-67
2022/09/28 12:53:36;;;;;;;11.32;8.05;;;13.50;80.30;;;;;;5008602;28;20042;-69
2022/09/28 12:56:10;;;;;;;;;;;13.30;80.60;;;;;;5011624;28;20048;-67
2022/09/28 12:59:09;;;;;;;12.52;7.72;;;13.10;77.20;;;;;;5007800;28;19909;-67
2022/09/28 13:02:04;;;;;;;12.07;8.38;;;12.80;80.40;;;;;;5006720;28;20485;-67
2022/09/28 13:05:00;;;;;;;14.13;9.10;;;12.50;81.80;;;;;;5023863;28;20022;-67